Main page
METAR-TAF:

METAR-TAF

Airports :

Pristina International Airport

Pristina, Kosovo

latitude: 42-34-27N, longitude: 21-02-09E, elevation: 545 m

Current weather observation

The report was made 22 minutes ago, at 04:30 UTC
Wind 5 kt from the North
Temperature 8°C
Humidity 87%
Pressure 1009 hPa
Visibility: 7000 m
Scattered clouds at a height of 1000 ft
Broken clouds at a height of 3500 ft
light drizzle

METAR: BKPR 210430Z 36005KT 7000 -DZ SCT010 BKN035 08/06 Q1009 NOSIG RMK 17290095

Time: 05:52 (04:52 UTC)

Forecast

The report was made 5 hours and 22 minutes ago, at 23:30 UTC
Forecast valid from 21 at 00 UTC to 21 at 24 UTC
Wind 6 kt from the South
Visibility 10 km or more
Scattered clouds at a height of 2000 ft
Broken clouds at a height of 4000 ft
Temporary
from 21 at 00 UTC to 21 at 10 UTC
Visibility: 3000 m
Broken clouds at a height of 1000 ft
rain

TAF: BKPR 202330Z 2100/2124 17006KT 9999 SCT020 BKN040 TEMPO 2100/2110 3000 RA BKN010

Weather observations and forecasts of more than 4000 airports (METAR and TAF reports).

The available stations are represented by yellow and red dots on the map.

Hover mouse over dot to see the name of the station.

Then click to see weather observations and forecasts.

To change the map : click on the green buttons with a black cross to zoom in, on the green button with a dash to zoom out, or on the green arrows for adjacent maps.


METAR-TAF: